Time;durP1;ratioP1;P1;durP2;ratioP2;P2;SDS_P1;SDS_P2;PMS_P1;PMS_P2;Temp;Humidity;BMP_temperature;BMP_pressure;BME280_temperature;BME280_humidity;BME280_pressure;Samples;Min_cycle;Max_cycle;Signal;HPM_P1;HPM_P2
2023/03/27 00:00:31;;;;;;;11.43;7.40;;;;;;;10.96;55.75;93842.63;5073660;28;20455;-82
2023/03/27 00:02:58;;;;;;;10.43;7.40;;;;;;;11.00;54.96;93844.00;5073917;28;20441;-83
2023/03/27 00:05:26;;;;;;;14.43;5.77;;;;;;;11.03;53.63;93832.34;5073730;28;20480;-82
2023/03/27 00:07:54;;;;;;;6.50;4.80;;;;;;;11.06;54.46;93835.47;5037995;28;20537;-82
2023/03/27 00:10:21;;;;;;;7.73;5.00;;;;;;;11.15;53.09;93812.69;5073421;28;20895;-82
2023/03/27 00:12:48;;;;;;;10.87;4.97;;;;;;;11.06;52.93;93817.09;5073616;28;20528;-83
2023/03/27 00:15:17;;;;;;;6.83;4.73;;;;;;;11.13;52.40;93822.53;5073928;28;20776;-82
2023/03/27 00:17:46;;;;;;;10.20;5.53;;;;;;;11.08;53.07;93809.06;5054820;28;20441;-82
2023/03/27 00:20:14;;;;;;;6.40;5.40;;;;;;;11.10;53.01;93807.09;5038072;28;20494;-83
2023/03/27 00:22:42;;;;;;;6.00;5.40;;;;;;;11.23;53.73;93820.56;5073294;28;20456;-83
2023/03/27 00:25:10;;;;;;;6.33;5.20;;;;;;;11.29;52.29;93821.75;5073576;28;20487;-82
2023/03/27 00:27:36;;;;;;;13.07;6.57;;;;;;;11.26;52.86;93811.56;5073282;28;20448;-82
2023/03/27 00:30:05;;;;;;;9.60;5.93;;;;;;;11.20;52.86;93809.56;5073444;28;20445;-81
2023/03/27 00:32:35;;;;;;;8.93;5.00;;;;;;;11.21;53.09;93814.66;5073553;28;20444;-83
2023/03/27 00:35:02;;;;;;;7.10;5.40;;;;;;;11.17;53.21;93806.28;5072967;28;20441;-82
2023/03/27 00:37:29;;;;;;;6.90;4.87;;;;;;;11.15;52.08;93810.06;5073125;28;20455;-82
2023/03/27 00:39:55;;;;;;;5.47;3.73;;;;;;;11.14;51.74;93811.88;5054338;28;20449;-82
2023/03/27 00:42:24;;;;;;;4.60;3.37;;;;;;;11.13;51.90;93801.53;5073247;28;20441;-82
2023/03/27 00:44:53;;;;;;;5.20;3.50;;;;;;;11.03;50.62;93806.91;5073018;28;20464;-82
2023/03/27 00:47:29;;;;;;;6.70;4.73;;;;;;;10.85;51.09;93795.69;5072941;28;20464;-82
2023/03/27 00:50:05;;;;;;;8.27;4.70;;;;;;;10.91;51.86;93802.91;5023264;28;20472;-82
2023/03/27 00:52:33;;;;;;;6.90;4.33;;;;;;;10.98;52.47;93811.81;5054160;28;20440;-82
2023/03/27 00:55:03;;;;;;;8.10;4.90;;;;;;;11.05;51.87;93788.38;5072923;28;20863;-82
2023/03/27 00:57:30;;;;;;;5.57;4.37;;;;;;;11.04;51.33;93781.50;5072736;28;20440;-83
2023/03/27 01:00:09;;;;;;;4.60;3.80;;;;;;;11.08;51.62;93794.13;5073037;28;20531;-82
2023/03/27 01:02:36;;;;;;;5.93;3.67;;;;;;;11.12;51.86;93778.88;5055195;28;20447;-82
2023/03/27 01:05:06;;;;;;;9.53;5.33;;;;;;;11.10;50.76;93771.16;5072743;28;20610;-82
2023/03/27 01:07:33;;;;;;;5.10;4.20;;;;;;;11.02;51.53;93778.22;5072752;28;20437;-83
2023/03/27 01:10:00;;;;;;;9.10;4.73;;;;;;;11.08;52.57;93773.13;5072745;28;20448;-82
2023/03/27 01:12:37;;;;;;;6.47;5.03;;;;;;;11.07;52.58;93776.75;5071959;28;20914;-82
2023/03/27 01:15:21;;;;;;;4.50;4.10;;;;;;;11.06;51.94;93767.22;5072649;28;20444;-82
2023/03/27 01:17:59;;;;;;;6.67;4.90;;;;;;;11.00;51.65;93760.00;5072383;28;20453;-82
2023/03/27 01:21:09;;;;;;;7.30;4.30;;;;;;;10.98;52.48;93754.06;5072606;28;20812;-82
2023/03/27 01:24:20;;;;;;;8.40;5.67;;;;;;;10.94;52.15;93741.41;5072530;28;20452;-83
2023/03/27 01:26:59;;;;;;;5.77;4.30;;;;;;;10.90;52.55;93743.53;5072304;28;20468;-81
2023/03/27 01:29:35;;;;;;;8.90;5.80;;;;;;;10.68;53.80;93736.25;5072752;28;20483;-82
2023/03/27 01:32:25;;;;;;;12.77;6.10;;;;;;;10.54;53.60;93727.19;5072671;28;20455;-83
2023/03/27 01:35:06;;;;;;;9.53;6.10;;;;;;;10.60;53.86;93739.69;5072616;28;20448;-82
2023/03/27 01:38:07;;;;;;;7.23;6.10;;;;;;;10.59;54.56;93739.84;5072562;28;20529;-82
2023/03/27 01:40:41;;;;;;;8.27;5.80;;;;;;;10.66;55.53;93735.59;5072384;28;20502;-82
2023/03/27 01:43:14;;;;;;;8.50;6.90;;;;;;;10.71;54.62;93738.59;5072326;28;20860;-82
2023/03/27 01:45:47;;;;;;;10.20;7.40;;;;;;;10.75;54.83;93748.59;5071921;28;20839;-82
2023/03/27 01:48:19;;;;;;;7.83;6.23;;;;;;;10.76;54.70;93742.38;5071910;28;20935;-82
2023/03/27 01:50:49;;;;;;;8.30;6.83;;;;;;;10.81;55.16;93732.22;5072062;28;20468;-82
2023/03/27 01:53:21;;;;;;;12.20;7.63;;;;;;;10.89;55.52;93720.91;5072215;28;20501;-82
2023/03/27 01:55:57;;;;;;;8.00;6.17;;;;;;;10.92;56.05;93719.75;5072360;28;20456;-82
2023/03/27 01:58:29;;;;;;;9.40;6.63;;;;;;;10.98;54.92;93703.38;5071972;28;20946;-82
2023/03/27 02:01:01;;;;;;;11.50;6.70;;;;;;;10.85;55.56;93704.66;5072072;28;20439;-82
2023/03/27 02:03:32;;;;;;;8.77;5.60;;;;;;;10.88;56.74;93698.28;5072066;28;20436;-81
2023/03/27 02:06:04;;;;;;;8.30;5.97;;;;;;;10.95;56.01;93711.56;5071688;28;20985;-82
2023/03/27 02:08:37;;;;;;;8.43;4.93;;;;;;;10.95;54.91;93719.44;5053788;28;20665;-83
2023/03/27 02:11:06;;;;;;;8.63;6.33;;;;;;;10.77;54.91;93715.16;5072594;28;20444;-82
2023/03/27 02:13:40;;;;;;;9.07;6.67;;;;;;;10.64;56.16;93711.31;5072004;28;20447;-83
2023/03/27 02:16:11;;;;;;;10.90;7.53;;;;;;;10.58;55.99;93707.53;5072385;28;20435;-82
2023/03/27 02:18:44;;;;;;;16.20;6.83;;;;;;;10.41;57.16;93704.06;5071776;28;20452;-82
2023/03/27 02:21:12;;;;;;;11.83;7.60;;;;;;;10.41;57.07;93693.56;5071730;28;20444;-82
2023/03/27 02:23:40;;;;;;;9.13;6.33;;;;;;;10.50;57.38;93700.47;5071829;28;20451;-82
2023/03/27 02:26:12;;;;;;;13.40;6.13;;;;;;;10.58;57.56;93691.81;5075861;28;20483;-82
2023/03/27 02:28:52;;;;;;;10.83;7.80;;;;;;;10.67;57.45;93693.47;5075727;28;20452;-81
2023/03/27 02:31:32;;;;;;;13.13;7.00;;;;;;;10.74;56.89;93675.28;5075640;28;20958;-82
2023/03/27 02:34:14;;;;;;;9.63;6.63;;;;;;;10.77;56.82;93664.47;5075515;28;20440;-83
2023/03/27 02:36:52;;;;;;;8.80;5.93;;;;;;;10.84;56.47;93668.09;5075632;28;20463;-83
2023/03/27 02:39:25;;;;;;;9.37;5.50;;;;;;;10.80;56.42;93661.53;5075739;28;20448;-82
2023/03/27 02:42:02;;;;;;;10.60;6.37;;;;;;;10.79;56.41;93667.75;5075262;28;20523;-82
2023/03/27 02:44:36;;;;;;;11.60;6.60;;;;;;;10.79;56.22;93658.09;5075255;28;20824;-83
2023/03/27 02:47:07;;;;;;;15.07;8.37;;;;;;;10.69;56.03;93660.00;5075623;28;20921;-82
2023/03/27 02:49:38;;;;;;;10.33;6.70;;;;;;;10.36;57.23;93635.50;5074947;28;20957;-82
2023/03/27 02:52:10;;;;;;;14.87;10.40;;;;;;;10.13;57.32;93624.78;5074740;28;20440;-82
2023/03/27 02:54:40;;;;;;;17.50;12.10;;;;;;;10.10;58.71;93613.75;5076321;28;20452;-82
2023/03/27 02:57:13;;;;;;;13.03;8.53;;;;;;;10.03;58.85;93610.13;5076623;28;20482;-83
2023/03/27 02:59:44;;;;;;;13.97;7.60;;;;;;;9.99;59.67;93598.34;5076370;28;20467;-83
2023/03/27 03:02:16;;;;;;;9.63;6.53;;;;;;;10.07;60.41;93599.19;5076582;28;20432;-81
2023/03/27 03:04:46;;;;;;;9.63;7.37;;;;;;;10.18;60.22;93596.28;5078112;28;20441;-83
2023/03/27 03:07:14;;;;;;;10.60;6.97;;;;;;;10.28;59.21;93616.31;5078678;28;20443;-83
2023/03/27 03:13:18;;;;;;;14.80;7.97;;;;;;;10.43;58.97;93614.72;5080388;28;20440;-83
2023/03/27 03:15:45;;;;;;;20.87;10.63;;;;;;;10.42;58.83;93634.06;5087358;28;20440;-85
2023/03/27 03:18:12;;;;;;;15.73;10.50;;;;;;;10.44;59.33;93604.09;5090490;28;20455;-85
2023/03/27 03:20:40;;;;;;;21.50;10.60;;;;;;;10.44;58.61;93587.53;5083926;28;20802;-84
2023/03/27 03:23:07;;;;;;;15.40;10.57;;;;;;;10.34;58.88;93586.81;5047151;28;20459;-85
2023/03/27 03:32:19;;;;;;;8.87;5.73;;;;;;;10.20;54.27;93562.88;5081039;28;20431;-83
2023/03/27 03:34:46;;;;;;;10.17;4.90;;;;;;;10.15;53.44;93541.56;5079112;28;20448;-83
2023/03/27 03:37:13;;;;;;;5.87;4.70;;;;;;;10.08;53.18;93555.44;5080451;28;20459;-83
2023/03/27 03:39:40;;;;;;;6.90;5.17;;;;;;;10.19;55.38;93563.84;5079616;28;20443;-83
2023/03/27 03:42:07;;;;;;;9.30;5.57;;;;;;;10.24;54.59;93553.72;5041819;28;20456;-83
2023/03/27 03:44:36;;;;;;;5.30;4.20;;;;;;;10.29;54.88;93552.41;5078950;28;20429;-84
2023/03/27 03:47:02;;;;;;;5.87;4.53;;;;;;;10.26;53.90;93534.38;5081839;28;20494;-82
2023/03/27 03:49:31;;;;;;;5.10;4.60;;;;;;;10.20;54.57;93526.19;5077822;28;20484;-79
2023/03/27 03:51:57;;;;;;;9.00;6.10;;;;;;;10.29;54.31;93527.00;5076613;28;20475;-82
2023/03/27 03:54:24;;;;;;;8.80;5.90;;;;;;;10.43;55.39;93550.00;5076612;28;20440;-83
2023/03/27 03:56:51;;;;;;;8.13;5.40;;;;;;;10.43;53.91;93533.44;5076868;28;20455;-81
2023/03/27 03:59:18;;;;;;;4.93;4.43;;;;;;;10.33;53.60;93533.56;5076349;28;21024;-82
2023/03/27 04:01:47;;;;;;;6.70;4.43;;;;;;;10.26;54.14;93529.97;5040519;28;20441;-80
2023/03/27 04:04:15;;;;;;;9.07;4.70;;;;;;;10.24;52.79;93539.78;5076101;28;20436;-80
2023/03/27 04:06:44;;;;;;;8.90;6.13;;;;;;;10.19;52.94;93539.44;5075564;28;20837;-83
2023/03/27 04:09:11;;;;;;;10.17;4.37;;;;;;;10.00;52.48;93518.75;5075418;28;20464;-81
2023/03/27 04:11:38;;;;;;;5.03;4.60;;;;;;;9.93;54.58;93522.00;5059308;28;20931;-81
2023/03/27 04:14:05;;;;;;;6.87;4.43;;;;;;;10.08;54.35;93544.97;5096606;28;20449;-80
2023/03/27 04:16:32;;;;;;;8.70;5.20;;;;;;;10.09;54.89;93533.50;5097519;28;20469;-79
2023/03/27 04:18:59;;;;;;;36.00;19.37;;;;;;;10.10;54.59;93522.03;5079326;28;20957;-79
2023/03/27 04:21:26;;;;;;;31.53;16.00;;;;;;;10.15;54.85;93520.59;5099064;28;20460;-81
2023/03/27 04:24:01;;;;;;;12.60;9.23;;;;;;;10.22;54.44;93549.63;5096737;28;20452;-82
2023/03/27 04:26:28;;;;;;;17.63;9.23;;;;;;;10.11;55.34;93547.25;5095716;28;20478;-83
2023/03/27 04:28:55;;;;;;;15.97;10.53;;;;;;;10.06;55.86;93545.13;5060028;28;20425;-82
2023/03/27 04:31:22;;;;;;;11.90;7.50;;;;;;;10.07;56.64;93545.94;5090490;28;20475;-81
2023/03/27 04:33:50;;;;;;;16.63;8.13;;;;;;;10.09;55.75;93546.59;5075876;28;20443;-80
2023/03/27 04:36:18;;;;;;;12.47;9.17;;;;;;;10.23;55.28;93538.16;5076608;28;20449;-81
2023/03/27 04:38:46;;;;;;;16.90;10.70;;;;;;;10.51;54.70;93547.38;5082541;28;20453;-79
2023/03/27 04:41:16;;;;;;;20.53;12.20;;;;;;;10.67;55.28;93538.66;5094865;28;20440;-78
2023/03/27 04:43:44;;;;;;;24.90;14.20;;;;;;;10.88;55.01;93546.06;5088093;28;20452;-81
2023/03/27 04:46:11;;;;;;;23.47;13.30;;;;;;;11.09;53.48;93532.44;5084311;28;20918;-81
2023/03/27 04:48:38;;;;;;;13.80;8.40;;;;;;;11.52;54.42;93528.53;5093470;28;20439;-80
2023/03/27 04:51:07;;;;;;;25.03;13.50;;;;;;;12.07;53.70;93536.41;5097307;28;20448;-81
2023/03/27 04:53:35;;;;;;;16.40;9.63;;;;;;;12.62;52.72;93511.72;5096764;28;20453;-83
2023/03/27 04:56:02;;;;;;;13.57;9.20;;;;;;;13.11;60.08;93500.78;5096932;28;20453;-80
2023/03/27 04:58:30;;;;;;;17.00;9.30;;;;;;;13.74;63.63;93522.38;5094357;28;20443;-86
2023/03/27 05:00:58;;;;;;;22.00;10.40;;;;;;;13.99;58.42;93510.53;5096083;28;20486;-82
2023/03/27 05:03:27;;;;;;;15.03;7.87;;;;;;;13.82;48.24;93530.19;5093729;28;20526;-86
2023/03/27 05:05:53;;;;;;;8.80;6.37;;;;;;;13.42;46.60;93486.66;5074678;28;21008;-86
2023/03/27 05:08:20;;;;;;;7.57;5.57;;;;;;;12.68;48.12;93441.75;5074504;28;20792;-82
2023/03/27 05:10:47;;;;;;;11.03;5.23;;;;;;;12.75;50.70;93455.88;5074137;28;20442;-87
2023/03/27 05:13:14;;;;;;;11.27;6.70;;;;;;;13.29;46.94;93482.81;5073614;28;20466;-82
2023/03/27 05:19:04;;;;;;;11.03;5.10;;;;;;;14.68;43.48;93491.59;5052390;28;20482;-81
2023/03/27 05:21:31;;;;;;;8.03;5.73;;;;;;;15.11;41.12;93477.34;5053552;28;20441;-81
2023/03/27 05:23:57;;;;;;;11.63;8.60;;;;;;;14.97;40.56;93472.13;5053440;28;20442;-83
2023/03/27 05:26:24;;;;;;;17.93;10.63;;;;;;;15.01;43.09;93483.94;5067382;28;20488;-82
2023/03/27 05:28:53;;;;;;;16.80;9.37;;;;;;;14.67;41.55;93450.34;5072697;28;20443;-82
2023/03/27 05:31:21;;;;;;;6.83;5.13;;;;;;;14.25;43.38;93439.59;5073856;28;20432;-81
2023/03/27 05:33:47;;;;;;;9.70;5.73;;;;;;;14.25;44.02;93442.25;5073603;28;20461;-84
2023/03/27 05:36:16;;;;;;;20.33;12.90;;;;;;;14.21;44.10;93440.97;5073412;28;20940;-85
2023/03/27 05:38:43;;;;;;;9.13;6.03;;;;;;;13.96;44.99;93410.69;5088077;28;20479;-84
2023/03/27 05:41:10;;;;;;;8.53;5.30;;;;;;;13.66;44.44;93424.94;5073256;28;20477;-83
2023/03/27 05:43:37;;;;;;;8.53;5.53;;;;;;;13.59;43.54;93420.41;5073518;28;20468;-82
2023/03/27 05:46:05;;;;;;;8.83;5.57;;;;;;;13.41;44.46;93398.88;5073404;28;21133;-83
2023/03/27 05:48:31;;;;;;;9.37;6.03;;;;;;;13.30;45.78;93389.66;5073826;28;20449;-84
2023/03/27 05:50:58;;;;;;;16.47;4.73;;;;;;;13.21;44.12;93374.09;5065136;28;20474;-84
2023/03/27 05:53:27;;;;;;;7.93;6.00;;;;;;;13.10;45.09;93362.19;5053269;28;20464;-84
2023/03/27 05:55:53;;;;;;;8.90;6.60;;;;;;;13.19;45.33;93349.78;5070212;28;20454;-84
2023/03/27 05:58:21;;;;;;;8.20;4.97;;;;;;;13.30;44.76;93331.69;5073128;28;20842;-84
2023/03/27 06:00:49;;;;;;;7.47;6.00;;;;;;;13.17;45.02;93331.53;5076256;28;20450;-83
2023/03/27 06:03:17;;;;;;;9.93;4.00;;;;;;;13.18;48.69;93306.00;5076305;28;20930;-84
2023/03/27 06:05:45;;;;;;;6.80;2.63;;;;;;;13.18;46.22;93293.63;5076148;28;20476;-83
2023/03/27 06:08:12;;;;;;;3.30;3.00;;;;;;;12.46;47.08;93296.13;5076327;28;20456;-86
2023/03/27 06:10:43;;;;;;;3.00;2.70;;;;;;;12.16;48.00;93292.66;5075929;28;20464;-83
2023/03/27 06:13:12;;;;;;;3.67;2.90;;;;;;;12.02;48.89;93286.34;5076154;28;20450;-84
2023/03/27 06:15:41;;;;;;;3.03;2.53;;;;;;;11.92;48.11;93275.28;5075875;28;20479;-83
2023/03/27 06:18:08;;;;;;;3.20;2.87;;;;;;;11.54;49.56;93258.63;5075874;28;20520;-84
2023/03/27 06:20:36;;;;;;;7.10;3.43;;;;;;;11.37;49.71;93231.69;5076458;28;20494;-85
2023/03/27 06:23:05;;;;;;;3.40;2.37;;;;;;;11.36;49.91;93247.59;5075844;28;20448;-83
2023/03/27 06:25:34;;;;;;;3.10;2.70;;;;;;;11.59;49.62;93239.72;5075827;28;20440;-86
2023/03/27 06:28:05;;;;;;;2.43;2.03;;;;;;;11.44;50.30;93255.41;5076140;28;20441;-83
2023/03/27 06:30:32;;;;;;;2.33;2.13;;;;;;;11.32;50.58;93230.56;5076062;28;20871;-84
2023/03/27 06:33:01;;;;;;;3.80;2.90;;;;;;;11.32;51.50;93251.56;5075877;28;20436;-87
2023/03/27 06:35:30;;;;;;;2.77;2.57;;;;;;;11.17;52.23;93241.81;5057469;28;20437;-86
2023/03/27 06:37:58;;;;;;;4.00;2.97;;;;;;;11.22;51.94;93212.41;5075871;28;20444;-83
2023/03/27 06:40:27;;;;;;;5.20;3.83;;;;;;;11.33;51.63;93238.28;5075881;28;21010;-88
2023/03/27 06:42:59;;;;;;;3.10;2.90;;;;;;;11.48;51.83;93233.06;5056684;28;20444;-82
2023/03/27 06:45:32;;;;;;;5.80;3.40;;;;;;;11.64;50.97;93243.44;5075746;28;20451;-85
2023/03/27 06:48:02;;;;;;;3.70;3.13;;;;;;;11.68;50.68;93238.66;5074861;28;20528;-83
2023/03/27 06:50:30;;;;;;;5.83;3.50;;;;;;;11.87;50.22;93224.25;5075642;28;20533;-84
2023/03/27 06:52:58;;;;;;;3.50;2.80;;;;;;;12.14;50.58;93244.66;5075274;28;20544;-85
2023/03/27 06:55:27;;;;;;;5.03;3.13;;;;;;;12.45;49.84;93241.88;5075626;28;20687;-82
2023/03/27 06:57:55;;;;;;;16.90;5.30;;;;;;;12.80;49.91;93248.19;5075167;28;20498;-84
2023/03/27 07:00:25;;;;;;;8.40;6.70;;;;;;;13.03;48.20;93262.06;5075119;28;20473;-84
2023/03/27 07:02:56;;;;;;;10.10;7.27;;;;;;;13.46;49.26;93267.41;5075321;28;20923;-84
2023/03/27 07:05:24;;;;;;;10.40;6.53;;;;;;;13.96;47.85;93278.81;5075236;28;20964;-83
2023/03/27 07:07:51;;;;;;;12.83;5.27;;;;;;;14.38;48.85;93277.09;5075006;28;20520;-83
2023/03/27 07:10:22;;;;;;;5.63;3.70;;;;;;;14.86;45.74;93286.78;5074207;28;20432;-86
2023/03/27 07:12:53;;;;;;;4.20;3.83;;;;;;;15.10;44.93;93263.53;5075670;28;20447;-85
2023/03/27 07:15:21;;;;;;;6.70;3.90;;;;;;;15.36;44.21;93292.69;5075151;28;21017;-81
2023/03/27 07:17:58;;;;;;;4.83;3.37;;;;;;;15.85;42.93;93275.75;5075206;28;20451;-83
2023/03/27 07:20:27;;;;;;;4.17;3.87;;;;;;;16.01;43.12;93264.78;5074978;28;20803;-83
2023/03/27 07:22:56;;;;;;;3.40;3.10;;;;;;;16.28;41.72;93285.97;5074657;28;20932;-85
2023/03/27 07:25:23;;;;;;;3.40;3.10;;;;;;;16.34;42.43;93278.00;5074773;28;20437;-87
2023/03/27 07:27:50;;;;;;;8.43;3.93;;;;;;;15.56;43.48;93291.94;5074748;28;20495;-84
2023/03/27 07:30:17;;;;;;;8.93;4.43;;;;;;;14.95;47.00;93291.91;5056158;28;20469;-84
2023/03/27 07:32:45;;;;;;;6.43;3.90;;;;;;;14.36;47.70;93298.41;5074342;28;20955;-82
2023/03/27 07:35:13;;;;;;;5.10;3.27;;;;;;;14.66;47.60;93282.41;5074915;28;20484;-85
2023/03/27 07:37:41;;;;;;;4.67;3.57;;;;;;;14.86;46.07;93291.25;5074630;28;20444;-83
2023/03/27 07:40:13;;;;;;;3.40;3.10;;;;;;;14.81;45.67;93294.47;5074212;28;20514;-84
2023/03/27 07:42:44;;;;;;;6.77;3.70;;;;;;;15.17;45.57;93293.44;5074575;28;20451;-81
2023/03/27 07:45:15;;;;;;;3.30;2.77;;;;;;;15.38;45.33;93272.19;5074355;28;20432;-84
2023/03/27 07:47:43;;;;;;;4.00;3.40;;;;;;;15.58;44.05;93259.00;5074049;28;20488;-84
2023/03/27 07:50:12;;;;;;;4.00;2.80;;;;;;;15.77;44.19;93282.03;5074183;28;20474;-83
2023/03/27 07:52:42;;;;;;;3.00;2.80;;;;;;;15.96;43.27;93304.28;5073865;28;20531;-83
2023/03/27 07:55:11;;;;;;;4.93;3.50;;;;;;;16.07;43.22;93290.44;5073714;28;20527;-83
2023/03/27 07:57:39;;;;;;;4.23;3.23;;;;;;;15.96;41.94;93280.47;5073949;28;20447;-83
2023/03/27 08:00:11;;;;;;;3.97;3.13;;;;;;;15.78;42.00;93277.56;5088603;28;20439;-83
2023/03/27 08:02:41;;;;;;;3.83;3.30;;;;;;;15.86;41.78;93269.44;5073943;28;20453;-83
2023/03/27 08:05:10;;;;;;;3.57;3.23;;;;;;;15.53;43.62;93253.50;5074506;28;20457;-84
2023/03/27 08:07:38;;;;;;;5.77;3.77;;;;;;;15.30;44.85;93240.63;5073930;28;20468;-82
2023/03/27 08:10:08;;;;;;;5.40;3.20;;;;;;;15.23;44.71;93245.06;5073810;28;20441;-84
2023/03/27 08:12:35;;;;;;;3.07;2.50;;;;;;;15.11;43.95;93236.91;5038478;28;20862;-84
2023/03/27 08:15:03;;;;;;;6.10;3.00;;;;;;;15.06;44.51;93235.88;5073984;28;20429;-83
2023/03/27 08:17:32;;;;;;;4.03;3.57;;;;;;;15.13;45.00;93247.28;5073968;28;20427;-84
2023/03/27 08:19:59;;;;;;;3.93;3.43;;;;;;;15.23;44.98;93254.81;5073870;28;20449;-80
2023/03/27 08:22:29;;;;;;;4.20;3.10;;;;;;;15.30;43.96;93240.63;5054674;28;20446;-84
2023/03/27 08:24:57;;;;;;;4.80;4.07;;;;;;;15.29;44.42;93238.97;5073386;28;20455;-82
2023/03/27 08:27:26;;;;;;;3.90;3.60;;;;;;;15.27;44.13;93233.09;5073052;28;20485;-83
2023/03/27 08:29:53;;;;;;;4.30;3.90;;;;;;;15.26;43.80;93225.34;5073167;28;20457;-84
2023/03/27 08:32:19;;;;;;;7.10;4.70;;;;;;;15.09;44.35;93215.16;5073288;28;20444;-83
2023/03/27 08:34:46;;;;;;;5.87;4.30;;;;;;;15.20;43.69;93224.34;5073396;28;20891;-83
2023/03/27 08:37:13;;;;;;;10.30;4.33;;;;;;;15.15;43.85;93216.19;5073251;28;20442;-84
2023/03/27 08:39:40;;;;;;;14.20;4.47;;;;;;;15.26;43.11;93220.06;5073413;28;20441;-84
2023/03/27 08:42:15;;;;;;;7.30;4.87;;;;;;;15.24;43.68;93236.13;5073057;28;20492;-83
2023/03/27 08:44:46;;;;;;;7.97;6.80;;;;;;;15.23;44.06;93249.53;5073277;28;20836;-82
2023/03/27 08:47:19;;;;;;;6.30;5.10;;;;;;;15.20;44.29;93226.97;5073122;28;21003;-83
2023/03/27 08:49:50;;;;;;;8.47;5.97;;;;;;;15.10;44.43;93243.22;5073192;28;20483;-84
2023/03/27 08:52:22;;;;;;;13.67;8.20;;;;;;;15.07;45.13;93238.31;5072902;28;20445;-83
2023/03/27 08:54:57;;;;;;;15.80;6.97;;;;;;;15.00;45.59;93211.03;5072822;28;20501;-83
2023/03/27 08:57:27;;;;;;;13.90;6.67;;;;;;;14.76;45.87;93175.44;5073098;28;20452;-82
2023/03/27 08:59:59;;;;;;;14.73;5.70;;;;;;;14.66;45.87;93174.16;5073326;28;20444;-83
2023/03/27 09:02:36;;;;;;;7.90;4.23;;;;;;;14.59;45.95;93168.84;5073053;28;20609;-82
2023/03/27 09:05:08;;;;;;;12.17;4.63;;;;;;;14.42;46.78;93181.53;5072991;28;20531;-83
2023/03/27 09:07:41;;;;;;;6.30;4.60;;;;;;;14.37;46.45;93181.28;5054511;28;20485;-84
2023/03/27 09:10:16;;;;;;;16.40;4.93;;;;;;;14.47;46.89;93173.88;5072887;28;20445;-84
2023/03/27 09:12:59;;;;;;;12.27;5.10;;;;;;;14.56;46.46;93188.53;5072849;28;20991;-84
2023/03/27 09:15:31;;;;;;;13.43;4.33;;;;;;;14.57;47.65;93197.28;5072820;28;20909;-85
2023/03/27 09:18:03;;;;;;;14.77;4.97;;;;;;;14.63;48.48;93224.72;5072638;28;20450;-83
2023/03/27 09:20:34;;;;;;;7.40;4.90;;;;;;;14.55;47.25;93215.94;5072358;28;20440;-83
2023/03/27 09:23:09;;;;;;;6.30;4.80;;;;;;;14.61;47.63;93214.34;5072711;28;20445;-83
2023/03/27 09:25:38;;;;;;;5.37;4.47;;;;;;;14.56;47.56;93216.75;5054097;28;20527;-83
2023/03/27 09:28:18;;;;;;;7.83;4.90;;;;;;;14.65;48.51;93199.75;5072330;28;20558;-84
2023/03/27 09:30:47;;;;;;;8.33;5.27;;;;;;;14.75;49.14;93218.69;5072239;28;20456;-84
2023/03/27 09:33:14;;;;;;;6.20;4.60;;;;;;;14.86;49.87;93202.28;5072301;28;20439;-83
2023/03/27 09:35:42;;;;;;;11.17;5.40;;;;;;;14.94;49.96;93200.47;5072506;28;20518;-83
2023/03/27 09:38:25;;;;;;;6.80;4.83;;;;;;;14.95;51.55;93202.09;5073338;28;20502;-83
2023/03/27 09:41:01;;;;;;;6.87;4.80;;;;;;;14.78;53.36;93209.56;5072561;28;20457;-84
2023/03/27 09:43:33;;;;;;;13.67;6.30;;;;;;;14.80;53.70;93213.63;5072729;28;20512;-83
2023/03/27 09:46:02;;;;;;;9.60;5.93;;;;;;;15.01;53.55;93230.34;5072197;28;20803;-83
2023/03/27 09:48:37;;;;;;;5.77;4.70;;;;;;;15.05;52.87;93206.00;5071980;28;20891;-83
2023/03/27 09:51:05;;;;;;;7.57;5.27;;;;;;;14.84;52.22;93199.03;5072378;28;20484;-84
2023/03/27 09:53:34;;;;;;;5.57;5.07;;;;;;;15.05;52.24;93211.28;5072224;28;20494;-85
2023/03/27 09:56:04;;;;;;;10.87;7.50;;;;;;;15.16;53.92;93191.41;5072427;28;20453;-83
2023/03/27 09:58:39;;;;;;;9.90;5.47;;;;;;;14.81;52.68;93148.44;5072383;28;20462;-87
2023/03/27 10:01:18;;;;;;;5.30;4.10;;;;;;;14.62;51.69;93152.63;5072351;28;20815;-84
2023/03/27 10:03:48;;;;;;;6.60;5.43;;;;;;;14.55;52.75;93175.53;5072290;28;20672;-81
2023/03/27 10:06:25;;;;;;;6.60;5.30;;;;;;;14.57;53.95;93173.50;5071887;28;20951;-84
2023/03/27 10:08:54;;;;;;;11.23;4.63;;;;;;;14.72;53.31;93190.00;5071962;28;20493;-83
2023/03/27 10:11:24;;;;;;;10.97;4.67;;;;;;;14.84;52.93;93209.59;5072180;28;20444;-84
2023/03/27 10:13:55;;;;;;;10.97;7.10;;;;;;;15.00;52.87;93207.59;5071736;28;20480;-83
2023/03/27 10:16:23;;;;;;;5.83;5.10;;;;;;;14.90;52.54;93236.22;5071996;28;20452;-84
2023/03/27 10:18:54;;;;;;;11.43;5.83;;;;;;;15.03;53.18;93230.97;5071975;28;20453;-84
2023/03/27 10:21:31;;;;;;;5.20;4.70;;;;;;;15.08;52.97;93220.66;5071834;28;20445;-84
2023/03/27 10:24:06;;;;;;;8.67;5.10;;;;;;;15.03;51.50;93218.56;5053007;28;20451;-84
2023/03/27 10:26:37;;;;;;;9.93;5.93;;;;;;;15.07;51.71;93221.66;5072236;28;20451;-84
2023/03/27 10:29:20;;;;;;;7.53;6.73;;;;;;;15.12;51.50;93212.13;5052875;28;21003;-84
2023/03/27 10:31:52;;;;;;;9.63;4.57;;;;;;;15.03;50.08;93181.59;5071950;28;20488;-81
2023/03/27 10:34:31;;;;;;;5.33;3.63;;;;;;;15.14;48.89;93169.66;5071668;28;20456;-78
2023/03/27 10:37:00;;;;;;;7.23;3.17;;;;;;;15.11;47.90;93167.41;5069669;28;20538;-84
2023/03/27 10:39:29;;;;;;;9.03;2.53;;;;;;;15.15;47.52;93158.06;5071014;28;20450;-84
2023/03/27 10:41:56;;;;;;;3.00;2.50;;;;;;;15.21;48.73;93161.72;5071400;28;20441;-84
2023/03/27 10:44:27;;;;;;;3.83;3.53;;;;;;;15.23;47.75;93142.00;5071918;28;20450;-85
2023/03/27 10:46:58;;;;;;;3.50;2.87;;;;;;;15.25;46.84;93121.50;5074672;28;20437;-83
2023/03/27 10:49:35;;;;;;;4.67;3.63;;;;;;;15.39;47.91;93114.41;5074629;28;20446;-83
2023/03/27 10:52:11;;;;;;;3.87;3.57;;;;;;;15.49;46.40;93107.69;5042428;28;20455;-85
2023/03/27 10:54:45;;;;;;;3.47;3.17;;;;;;;15.62;47.12;93080.47;5055523;28;20525;-83
2023/03/27 10:57:17;;;;;;;9.80;6.53;;;;;;;15.68;44.96;93094.69;5065501;28;20996;-81
2023/03/27 10:59:49;;;;;;;15.40;5.00;;;;;;;15.53;48.33;93092.22;5074577;28;20448;-84
2023/03/27 11:02:22;;;;;;;9.13;4.57;;;;;;;15.41;49.30;93104.44;5074657;28;20442;-82
2023/03/27 11:04:53;;;;;;;7.87;5.13;;;;;;;15.47;50.26;93093.03;5073860;28;20441;-80
2023/03/27 11:07:25;;;;;;;7.53;4.90;;;;;;;15.61;50.69;93104.44;5055726;28;20478;-81
2023/03/27 11:09:59;;;;;;;8.00;6.07;;;;;;;15.53;50.78;93097.50;5072650;28;20484;-83
2023/03/27 11:12:28;;;;;;;9.47;5.07;;;;;;;15.41;50.99;93115.81;5074482;28;20425;-83
2023/03/27 11:15:00;;;;;;;7.17;5.30;;;;;;;15.31;50.78;93115.38;5068592;28;20471;-84
2023/03/27 11:17:36;;;;;;;10.23;4.97;;;;;;;15.28;51.89;93136.94;5072250;28;20449;-82
2023/03/27 11:20:07;;;;;;;5.57;4.93;;;;;;;14.72;52.93;93155.69;5055141;28;20440;-83
2023/03/27 11:22:43;;;;;;;5.93;4.80;;;;;;;14.90;53.12;93186.03;5071489;28;20502;-84
2023/03/27 11:25:19;;;;;;;10.43;5.00;;;;;;;15.00;53.54;93178.53;5073666;28;20472;-83
2023/03/27 11:27:55;;;;;;;7.17;4.70;;;;;;;14.95;53.51;93183.59;5067925;28;20491;-83
2023/03/27 11:30:36;;;;;;;4.33;3.37;;;;;;;14.91;56.80;93198.22;5074007;28;20514;-83
2023/03/27 11:33:27;;;;;;;3.30;2.47;;;;;;;14.65;60.32;93204.22;5038157;28;20924;-81
2023/03/27 11:36:01;;;;;;;3.23;2.90;;;;;;;14.48;62.06;93207.19;5074433;28;20790;-84
2023/03/27 11:38:36;;;;;;;3.73;3.43;;;;;;;14.25;64.40;93228.53;5074197;28;21163;-81
2023/03/27 11:41:04;;;;;;;3.77;3.13;;;;;;;14.10;65.64;93230.44;5074290;28;20430;-82
2023/03/27 11:43:32;;;;;;;3.40;3.10;;;;;;;14.02;67.19;93222.69;5073916;28;20897;-83
2023/03/27 11:46:10;;;;;;;4.13;3.63;;;;;;;13.92;67.46;93227.47;5075147;28;20494;-83
2023/03/27 11:49:04;;;;;;;4.67;3.73;;;;;;;13.89;69.23;93231.31;5073692;28;20867;-82
2023/03/27 11:51:53;;;;;;;7.13;3.70;;;;;;;13.91;68.10;93223.22;5054845;28;20486;-81
2023/03/27 11:54:41;;;;;;;5.23;4.27;;;;;;;13.85;67.37;93221.31;5073997;28;20545;-82
2023/03/27 11:57:17;;;;;;;3.60;3.20;;;;;;;13.50;67.58;93208.03;5073520;28;20466;-83
2023/03/27 12:00:11;;;;;;;3.60;3.30;;;;;;;13.49;67.33;93214.31;5073525;28;20862;-82
2023/03/27 12:03:07;;;;;;;4.00;3.60;;;;;;;13.63;69.06;93228.44;5073441;28;20442;-82